createdAt,value
2022-09-12T00:01:22.501Z,33.03
2022-09-12T00:03:51.404Z,24.80
2022-09-12T00:06:28.823Z,23.53
2022-09-12T00:08:56.659Z,8.37
2022-09-12T00:11:23.253Z,23.00
2022-09-12T00:13:50.242Z,26.40
2022-09-12T00:16:24.560Z,11.00
2022-09-12T00:18:51.457Z,49.50
2022-09-12T00:21:18.452Z,20.30
2022-09-12T00:23:45.109Z,16.83
2022-09-12T00:26:11.669Z,20.30
2022-09-12T00:28:38.987Z,8.57
2022-09-12T00:31:06.766Z,11.33
2022-09-12T00:33:33.565Z,10.07
2022-09-12T00:36:00.194Z,17.03
2022-09-12T00:38:26.644Z,17.20
2022-09-12T00:40:53.193Z,19.87
2022-09-12T00:43:39.315Z,19.43
2022-09-12T00:46:26.024Z,12.70
2022-09-12T00:48:55.582Z,32.23
2022-09-12T00:51:22.367Z,21.53
2022-09-12T00:53:50.665Z,34.27
2022-09-12T00:56:18.563Z,53.70
2022-09-12T00:58:51.135Z,46.43
2022-09-12T01:01:17.990Z,32.70
2022-09-12T01:03:44.728Z,40.40
2022-09-12T01:06:16.328Z,28.23
2022-09-12T01:08:43.685Z,16.47
2022-09-12T01:11:11.187Z,11.13
2022-09-12T01:13:37.674Z,44.60
2022-09-12T01:16:05.964Z,27.10
2022-09-12T01:18:41.948Z,18.27
2022-09-12T01:21:08.500Z,32.73
2022-09-12T01:23:53.756Z,21.00
2022-09-12T01:26:29.355Z,4.90
2022-09-12T01:29:15.392Z,11.03
2022-09-12T01:31:48.242Z,10.43
2022-09-12T01:34:20.769Z,16.40
2022-09-12T01:36:57.918Z,22.57
2022-09-12T01:39:27.937Z,16.50
2022-09-12T01:41:54.532Z,15.30
2022-09-12T01:44:24.281Z,9.93
2022-09-12T01:46:50.712Z,15.07
2022-09-12T01:49:23.278Z,11.97
2022-09-12T01:52:00.065Z,11.50
2022-09-12T01:54:30.425Z,24.33
2022-09-12T01:56:58.656Z,44.47
2022-09-12T01:59:25.131Z,13.13
2022-09-12T02:01:58.452Z,26.47
2022-09-12T02:04:30.053Z,12.30
2022-09-12T02:07:02.950Z,20.20
2022-09-12T02:09:32.145Z,30.23
2022-09-12T02:12:00.180Z,22.80
2022-09-12T02:14:37.034Z,18.77
2022-09-12T02:17:09.887Z,11.73
2022-09-12T02:19:44.410Z,13.20
2022-09-12T02:22:13.820Z,14.70
2022-09-12T02:24:42.271Z,70.23
2022-09-12T02:27:14.877Z,27.20
2022-09-12T02:29:41.692Z,13.57
2022-09-12T02:32:15.436Z,27.77
2022-09-12T02:34:52.843Z,49.30
2022-09-12T02:37:32.469Z,9.20
2022-09-12T02:39:59.455Z,18.47
2022-09-12T02:42:25.975Z,14.57
2022-09-12T02:44:53.848Z,18.23
2022-09-12T02:47:23.819Z,22.30
2022-09-12T02:49:50.375Z,21.93
2022-09-12T02:52:16.932Z,14.30
2022-09-12T02:54:43.618Z,23.67
2022-09-12T02:57:22.841Z,18.63
2022-09-12T02:59:50.556Z,21.87
2022-09-12T03:02:17.018Z,10.43
2022-09-12T03:04:55.850Z,19.37
2022-09-12T03:07:31.636Z,12.17
2022-09-12T03:10:01.670Z,8.67
2022-09-12T03:12:46.943Z,15.93
2022-09-12T03:15:13.479Z,70.57
2022-09-12T03:17:46.075Z,18.00
2022-09-12T03:20:18.103Z,27.17
2022-09-12T03:22:55.745Z,22.20
2022-09-12T03:25:25.487Z,11.93
2022-09-12T03:27:56.276Z,15.83
2022-09-12T03:30:22.973Z,13.10
2022-09-12T03:32:51.071Z,6.20
2022-09-12T03:35:22.870Z,26.40
2022-09-12T03:37:50.157Z,31.80
2022-09-12T03:40:16.862Z,21.53
2022-09-12T03:42:43.335Z,35.27
2022-09-12T03:45:10.051Z,31.23
2022-09-12T03:47:36.669Z,42.70
2022-09-12T03:50:03.845Z,15.40
2022-09-12T03:52:30.386Z,22.03
2022-09-12T03:54:56.831Z,10.00
2022-09-12T03:57:23.394Z,12.93
2022-09-12T03:59:52.753Z,30.57
2022-09-12T04:02:19.292Z,18.40
2022-09-12T04:04:47.922Z,19.30
2022-09-12T04:07:15.179Z,7.50
2022-09-12T04:09:41.608Z,14.60
2022-09-12T04:12:08.092Z,15.17
2022-09-12T04:14:34.547Z,32.87
2022-09-12T04:17:01.117Z,18.20
2022-09-12T04:19:27.672Z,16.70
2022-09-12T04:21:54.140Z,28.50
2022-09-12T04:24:20.603Z,12.47
2022-09-12T04:26:47.122Z,20.40
2022-09-12T04:29:15.035Z,18.10
2022-09-12T04:31:41.884Z,11.33
2022-09-12T04:34:08.778Z,46.00
2022-09-12T04:36:35.623Z,25.23
2022-09-12T04:39:02.267Z,24.07
2022-09-12T04:41:33.305Z,25.43
2022-09-12T04:44:04.245Z,11.27
2022-09-12T04:46:31.802Z,44.40
2022-09-12T04:48:58.464Z,18.83
2022-09-12T04:51:27.809Z,43.20
2022-09-12T04:54:02.071Z,17.17
2022-09-12T04:56:29.051Z,15.00
2022-09-12T04:58:59.304Z,15.03
2022-09-12T05:01:26.297Z,11.23
2022-09-12T05:03:52.933Z,13.37
2022-09-12T05:06:23.973Z,35.50
2022-09-12T05:08:51.140Z,29.83
2022-09-12T05:11:24.094Z,29.67
2022-09-12T05:13:51.840Z,16.87
2022-09-12T05:16:18.837Z,14.10
2022-09-12T05:18:46.707Z,19.60
2022-09-12T05:21:14.497Z,25.33
2022-09-12T05:23:41.330Z,33.87
2022-09-12T05:26:08.182Z,20.07
2022-09-12T05:28:35.967Z,27.50
2022-09-12T05:31:08.651Z,24.30
2022-09-12T05:33:36.324Z,18.23
2022-09-12T05:36:03.356Z,26.03
2022-09-12T05:38:29.788Z,18.10
2022-09-12T05:41:03.731Z,16.53
2022-09-12T05:43:30.287Z,25.03
2022-09-12T05:46:08.800Z,17.47
2022-09-12T05:48:36.906Z,24.47
2022-09-12T05:51:07.089Z,35.57
2022-09-12T05:53:33.571Z,42.10
2022-09-12T05:56:04.151Z,38.23
2022-09-12T05:58:30.622Z,27.63
2022-09-12T06:01:01.352Z,42.93
2022-09-12T06:03:27.792Z,9.53
2022-09-12T06:05:54.351Z,17.77
2022-09-12T06:08:20.764Z,5.40
2022-09-12T06:10:47.227Z,17.93
2022-09-12T06:13:13.944Z,6.30
2022-09-12T06:15:40.406Z,15.07
2022-09-12T06:18:06.840Z,11.00
2022-09-12T06:20:36.151Z,12.93
2022-09-12T06:23:02.578Z,11.67
2022-09-12T06:25:29.580Z,8.60
2022-09-12T06:27:56.052Z,12.63
2022-09-12T06:30:25.510Z,15.83
2022-09-12T06:32:52.091Z,14.53
2022-09-12T06:35:19.008Z,10.13
2022-09-12T06:37:45.701Z,19.93
2022-09-12T06:40:12.428Z,11.17
2022-09-12T06:42:38.957Z,29.67
2022-09-12T06:45:05.724Z,9.60
2022-09-12T06:47:32.718Z,8.17
2022-09-12T06:49:59.185Z,16.90
2022-09-12T06:52:25.661Z,19.83
2022-09-12T06:54:52.097Z,18.23
2022-09-12T06:57:18.548Z,22.10
2022-09-12T06:59:45.008Z,19.87
2022-09-12T07:02:12.489Z,11.87
2022-09-12T07:04:39.038Z,12.00
2022-09-12T07:07:05.795Z,16.63
2022-09-12T07:09:32.229Z,14.80
2022-09-12T07:11:58.706Z,7.00
2022-09-12T07:14:26.088Z,8.20
2022-09-12T07:16:52.570Z,15.50
2022-09-12T07:19:19.039Z,22.07
2022-09-12T07:21:45.793Z,10.27
2022-09-12T07:24:12.245Z,26.60
2022-09-12T07:26:40.090Z,23.83
2022-09-12T07:29:35.475Z,18.00
2022-09-12T07:31:53.585Z,9.87
2022-09-12T07:34:20.040Z,18.83
2022-09-12T07:36:46.492Z,10.00
2022-09-12T07:39:12.977Z,8.93
2022-09-12T07:41:39.605Z,16.33
2022-09-12T07:44:07.166Z,10.70
2022-09-12T07:46:33.648Z,9.60
2022-09-12T07:49:01.075Z,13.00
2022-09-12T07:51:28.235Z,11.83
2022-09-12T07:53:56.270Z,9.63
2022-09-12T07:56:27.364Z,9.97
2022-09-12T07:58:56.869Z,18.97
2022-09-12T08:01:23.766Z,10.27
2022-09-12T08:03:53.350Z,11.17
2022-09-12T08:06:21.133Z,11.23
2022-09-12T08:08:48.187Z,17.07
2022-09-12T08:11:15.549Z,9.80
2022-09-12T08:13:42.918Z,9.80
2022-09-12T08:16:13.655Z,11.63
2022-09-12T08:18:40.882Z,16.70
2022-09-12T08:21:08.773Z,12.60
2022-09-12T08:23:35.274Z,11.73
2022-09-12T08:26:06.209Z,12.57
2022-09-12T08:28:34.193Z,11.80
2022-09-12T08:31:05.251Z,10.70
2022-09-12T08:33:35.722Z,9.87
2022-09-12T08:36:04.246Z,10.57
2022-09-12T08:38:30.856Z,13.17
2022-09-12T08:41:04.017Z,12.70
2022-09-12T08:43:31.040Z,11.17
2022-09-12T08:46:02.506Z,12.93
2022-09-12T08:48:29.548Z,10.83
2022-09-12T08:50:56.083Z,11.40
2022-09-12T08:53:23.373Z,13.97
2022-09-12T08:55:54.663Z,12.23
2022-09-12T08:58:22.752Z,12.60
2022-09-12T09:01:04.674Z,12.10
2022-09-12T09:03:37.191Z,10.50
2022-09-12T09:06:11.512Z,11.07
2022-09-12T09:08:46.720Z,11.90
2022-09-12T09:11:24.045Z,9.53
2022-09-12T09:14:15.204Z,9.53
2022-09-12T09:16:43.834Z,11.00
2022-09-12T09:19:21.605Z,12.93
2022-09-12T09:21:51.303Z,10.27
2022-09-12T09:24:20.146Z,9.40
2022-09-12T09:26:51.789Z,9.93
2022-09-12T09:29:23.909Z,10.87
2022-09-12T09:31:52.696Z,9.00
2022-09-12T09:34:20.751Z,9.10
2022-09-12T09:36:59.799Z,9.40
2022-09-12T09:39:37.414Z,9.47
2022-09-12T09:42:10.189Z,7.87
2022-09-12T09:44:36.862Z,8.23
2022-09-12T09:47:03.479Z,7.60
2022-09-12T09:49:31.509Z,7.40
2022-09-12T09:52:00.556Z,7.47
2022-09-12T09:54:49.466Z,6.80
2022-09-12T09:57:36.164Z,6.93
2022-09-12T10:00:21.867Z,6.60
2022-09-12T10:03:00.895Z,7.87
2022-09-12T10:05:28.609Z,7.13
2022-09-12T10:07:55.357Z,6.50
2022-09-12T10:10:25.338Z,6.10
2022-09-12T10:13:05.868Z,8.37
2022-09-12T10:15:34.752Z,6.70
2022-09-12T10:18:03.046Z,10.77
2022-09-12T10:20:45.393Z,7.20
2022-09-12T10:23:18.022Z,6.30
2022-09-12T10:25:48.547Z,8.00
2022-09-12T10:28:21.851Z,5.53
2022-09-12T10:30:52.810Z,5.80
2022-09-12T10:33:19.661Z,6.37
2022-09-12T10:35:48.496Z,5.63
2022-09-12T10:38:22.709Z,5.77
2022-09-12T10:40:55.923Z,4.87
2022-09-12T10:43:25.413Z,3.73
2022-09-12T10:45:52.158Z,4.83
2022-09-12T10:48:24.670Z,4.63
2022-09-12T10:50:51.896Z,5.63
2022-09-12T10:53:19.487Z,4.00
2022-09-12T10:56:04.703Z,6.03
2022-09-12T10:58:31.124Z,4.93
2022-09-12T11:01:02.344Z,4.47
2022-09-12T11:03:55.360Z,3.53
2022-09-12T11:06:25.120Z,3.30
2022-09-12T11:08:59.641Z,4.27
2022-09-12T11:11:55.596Z,3.53
2022-09-12T11:14:30.806Z,3.03
2022-09-12T11:17:13.414Z,4.33
2022-09-12T11:19:51.081Z,3.90
2022-09-12T11:22:23.418Z,4.00
2022-09-12T11:25:02.137Z,3.40
2022-09-12T11:27:34.036Z,3.50
2022-09-12T11:30:13.873Z,2.87
2022-09-12T11:32:43.327Z,3.20
2022-09-12T11:35:17.590Z,4.67
2022-09-12T11:37:44.268Z,4.00
2022-09-12T11:40:23.218Z,3.23
2022-09-12T11:42:51.424Z,3.80
2022-09-12T11:45:29.455Z,3.90
2022-09-12T11:47:59.884Z,3.33
2022-09-12T11:50:30.588Z,3.10
2022-09-12T11:53:17.103Z,2.40
2022-09-12T11:55:53.221Z,2.90
2022-09-12T11:58:22.231Z,2.63
2022-09-12T12:00:51.803Z,2.50
2022-09-12T12:03:24.108Z,2.73
2022-09-12T12:06:06.906Z,2.57
2022-09-12T12:08:38.113Z,3.40
2022-09-12T12:11:05.850Z,2.80
2022-09-12T12:13:53.940Z,2.80
2022-09-12T12:16:23.520Z,2.40
2022-09-12T12:18:57.852Z,2.67
2022-09-12T12:21:43.440Z,3.10
2022-09-12T12:24:09.857Z,4.10
2022-09-12T12:26:48.304Z,4.10
2022-09-12T12:29:17.980Z,3.73
2022-09-12T12:32:03.994Z,3.50
2022-09-12T12:34:57.129Z,4.33
2022-09-12T12:37:25.322Z,3.17
2022-09-12T12:40:21.461Z,7.53
2022-09-12T12:42:47.951Z,3.30
2022-09-12T12:45:18.141Z,3.23
2022-09-12T12:47:47.522Z,2.77
2022-09-12T12:50:16.806Z,2.63
2022-09-12T12:52:58.510Z,3.00
2022-09-12T12:55:26.472Z,3.00
2022-09-12T12:57:54.051Z,4.90
2022-09-12T13:00:20.540Z,2.90
2022-09-12T13:02:59.776Z,2.77
2022-09-12T13:05:27.535Z,3.07
2022-09-12T13:08:17.387Z,3.43
2022-09-12T13:10:55.125Z,4.63
2022-09-12T13:13:38.902Z,3.60
2022-09-12T13:16:05.517Z,3.90
2022-09-12T13:18:32.030Z,3.50
2022-09-12T13:21:01.291Z,3.00
2022-09-12T13:23:28.914Z,3.53
2022-09-12T13:25:56.372Z,2.60
2022-09-12T13:28:23.334Z,2.70
2022-09-12T13:31:08.530Z,2.93
2022-09-12T13:33:43.307Z,3.00
2022-09-12T13:36:15.947Z,3.03
2022-09-12T13:38:51.679Z,2.70
2022-09-12T13:41:18.165Z,2.77
2022-09-12T13:43:47.022Z,3.20
2022-09-12T13:46:16.500Z,3.07
2022-09-12T13:48:43.727Z,2.70
2022-09-12T13:51:19.041Z,2.93
2022-09-12T13:53:47.393Z,2.70
2022-09-12T13:56:17.721Z,3.27
2022-09-12T13:58:57.553Z,2.77
2022-09-12T14:01:25.091Z,2.83
2022-09-12T14:04:14.432Z,3.47
2022-09-12T14:06:45.546Z,2.90
2022-09-12T14:09:18.360Z,3.17
2022-09-12T14:11:47.276Z,2.50
2022-09-12T14:14:19.613Z,3.30
2022-09-12T14:16:46.104Z,3.00
2022-09-12T14:19:12.648Z,3.40
2022-09-12T14:21:39.236Z,2.73
2022-09-12T14:24:06.997Z,3.23
2022-09-12T14:26:35.039Z,2.50
2022-09-12T14:29:04.901Z,3.80
2022-09-12T14:31:32.366Z,3.10
2022-09-12T14:34:09.877Z,3.37
2022-09-12T14:36:40.099Z,3.40
2022-09-12T14:39:15.153Z,3.60
2022-09-12T14:41:41.935Z,3.03
2022-09-12T14:44:10.568Z,3.80
2022-09-12T14:46:38.792Z,2.63
2022-09-12T14:49:14.577Z,3.87
2022-09-12T14:51:49.372Z,4.80
2022-09-12T14:54:44.511Z,3.60
2022-09-12T14:57:29.898Z,2.90
2022-09-12T15:00:05.618Z,3.67
2022-09-12T15:02:32.998Z,3.23
2022-09-12T15:05:08.906Z,3.00
2022-09-12T15:07:39.988Z,3.00
2022-09-12T15:10:15.476Z,3.33
2022-09-12T15:12:42.124Z,3.60
2022-09-12T15:15:19.212Z,3.07
2022-09-12T15:17:45.722Z,3.13
2022-09-12T15:20:13.633Z,5.77
2022-09-12T15:22:40.573Z,3.90
2022-09-12T15:25:07.562Z,3.00
2022-09-12T15:27:34.105Z,6.03
2022-09-12T15:30:00.686Z,2.70
2022-09-12T15:32:29.183Z,4.30
2022-09-12T15:34:55.973Z,3.30
2022-09-12T15:37:24.205Z,3.00
2022-09-12T15:39:51.369Z,9.00
2022-09-12T15:42:19.771Z,3.07
2022-09-12T15:44:46.264Z,3.30
2022-09-12T15:47:13.504Z,3.27
2022-09-12T15:49:40.279Z,3.50
2022-09-12T15:52:07.569Z,3.73
2022-09-12T15:54:34.374Z,2.80
2022-09-12T15:57:00.832Z,3.23
2022-09-12T15:59:27.319Z,2.50
2022-09-12T16:01:53.998Z,3.70
2022-09-12T16:04:23.789Z,3.23
2022-09-12T16:06:50.639Z,3.77
2022-09-12T16:09:17.597Z,3.03
2022-09-12T16:11:45.147Z,3.20
2022-09-12T16:14:15.319Z,3.00
2022-09-12T16:16:42.308Z,3.37
2022-09-12T16:19:12.337Z,3.40
2022-09-12T16:21:38.840Z,3.63
2022-09-12T16:24:05.461Z,3.23
2022-09-12T16:26:31.983Z,4.10
2022-09-12T16:28:59.122Z,3.30
2022-09-12T16:31:26.514Z,3.67
2022-09-12T16:33:53.172Z,3.70
2022-09-12T16:36:20.249Z,3.40
2022-09-12T16:38:48.104Z,3.73
2022-09-12T16:41:15.706Z,3.83
2022-09-12T16:43:43.015Z,5.20
2022-09-12T16:46:13.564Z,3.30
2022-09-12T16:48:49.353Z,3.67
2022-09-12T16:51:19.920Z,3.50
2022-09-12T16:53:46.897Z,4.03
2022-09-12T16:56:13.424Z,3.20
2022-09-12T16:58:42.215Z,3.13
2022-09-12T17:01:16.775Z,3.57
2022-09-12T17:03:43.369Z,4.13
2022-09-12T17:06:09.894Z,3.03
2022-09-12T17:08:38.097Z,3.83
2022-09-12T17:11:09.180Z,3.50
2022-09-12T17:14:00.057Z,4.23
2022-09-12T17:16:22.445Z,3.37
2022-09-12T17:18:49.586Z,3.10
2022-09-12T17:21:16.117Z,4.57
2022-09-12T17:23:42.773Z,5.27
2022-09-12T17:26:10.178Z,4.20
2022-09-12T17:28:37.372Z,4.60
2022-09-12T17:31:05.283Z,3.93
2022-09-12T17:33:32.079Z,5.40
2022-09-12T17:36:02.901Z,4.07
2022-09-12T17:38:31.879Z,6.37
2022-09-12T17:41:05.013Z,4.40
2022-09-12T17:43:31.707Z,5.10
2022-09-12T17:45:58.520Z,5.90
2022-09-12T17:48:25.133Z,3.97
2022-09-12T17:50:52.119Z,4.63
2022-09-12T17:53:18.640Z,5.33
2022-09-12T17:55:45.216Z,4.20
2022-09-12T17:58:12.643Z,4.70
2022-09-12T18:00:57.865Z,4.73
2022-09-12T18:03:24.525Z,6.93
2022-09-12T18:05:55.393Z,3.90
2022-09-12T18:08:23.233Z,5.03
2022-09-12T18:10:51.038Z,4.30
2022-09-12T18:13:17.849Z,4.90
2022-09-12T18:15:44.378Z,4.83
2022-09-12T18:18:10.870Z,4.97
2022-09-12T18:20:37.381Z,5.63
2022-09-12T18:23:04.781Z,5.53
2022-09-12T18:25:31.272Z,7.63
2022-09-12T18:27:57.804Z,4.47
2022-09-12T18:30:24.309Z,6.03
2022-09-12T18:32:50.951Z,6.03
2022-09-12T18:35:17.600Z,9.50
2022-09-12T18:37:44.904Z,7.73
2022-09-12T18:40:11.473Z,8.30
2022-09-12T18:42:38.016Z,10.17
2022-09-12T18:45:04.697Z,9.00
2022-09-12T18:47:31.248Z,9.03
2022-09-12T18:49:58.117Z,7.80
2022-09-12T18:52:24.714Z,6.70
2022-09-12T18:54:51.242Z,6.87
2022-09-12T18:57:17.768Z,7.90
2022-09-12T18:59:44.661Z,10.20
2022-09-12T19:02:15.790Z,6.30
2022-09-12T19:04:42.397Z,5.20
2022-09-12T19:07:08.955Z,5.60
2022-09-12T19:09:35.450Z,7.50
2022-09-12T19:12:02.081Z,5.73
2022-09-12T19:14:28.615Z,5.70
2022-09-12T19:16:55.187Z,9.43
2022-09-12T19:19:21.752Z,10.70
2022-09-12T19:21:48.336Z,12.50
2022-09-12T19:24:16.217Z,14.63
2022-09-12T19:26:42.762Z,6.60
2022-09-12T19:29:10.315Z,11.60
2022-09-12T19:31:37.026Z,7.20
2022-09-12T19:34:05.050Z,9.03
2022-09-12T19:36:47.702Z,6.17
2022-09-12T19:39:15.140Z,6.30
2022-09-12T19:41:41.675Z,7.27
2022-09-12T19:44:08.207Z,6.50
2022-09-12T19:46:34.890Z,4.73
2022-09-12T19:49:01.566Z,6.23
2022-09-12T19:51:28.440Z,5.53
2022-09-12T19:53:55.023Z,4.80
2022-09-12T19:56:21.899Z,8.90
2022-09-12T19:58:53.499Z,8.70
2022-09-12T20:01:29.692Z,5.23
2022-09-12T20:03:56.572Z,4.77
2022-09-12T20:06:23.228Z,6.27
2022-09-12T20:08:49.789Z,9.47
2022-09-12T20:11:20.230Z,7.67
2022-09-12T20:13:47.221Z,5.00
2022-09-12T20:16:21.694Z,8.10
2022-09-12T20:18:52.117Z,5.17
2022-09-12T20:21:19.469Z,5.20
2022-09-12T20:23:46.640Z,4.00
2022-09-12T20:26:13.795Z,5.30
2022-09-12T20:28:41.135Z,6.17
2022-09-12T20:31:10.281Z,4.93
2022-09-12T20:33:36.803Z,4.43
2022-09-12T20:36:04.421Z,7.10
2022-09-12T20:38:30.881Z,13.70
2022-09-12T20:40:57.447Z,6.40
2022-09-12T20:43:23.931Z,6.40
2022-09-12T20:45:50.537Z,5.17
2022-09-12T20:48:17.127Z,9.50
2022-09-12T20:50:43.633Z,5.57
2022-09-12T20:53:10.165Z,5.70
2022-09-12T20:55:36.897Z,8.00
2022-09-12T20:58:03.523Z,8.30
2022-09-12T21:00:30.507Z,6.60
2022-09-12T21:02:57.318Z,6.53
2022-09-12T21:05:23.871Z,6.20
2022-09-12T21:07:50.390Z,9.77
2022-09-12T21:10:17.048Z,6.33
2022-09-12T21:12:43.484Z,7.60
2022-09-12T21:15:10.315Z,7.97
2022-09-12T21:17:36.786Z,6.13
2022-09-12T21:20:06.033Z,9.73
2022-09-12T21:22:34.562Z,6.63
2022-09-12T21:25:01.156Z,6.73
2022-09-12T21:27:27.768Z,5.73
2022-09-12T21:29:54.573Z,6.60
2022-09-12T21:32:21.208Z,6.73
2022-09-12T21:34:47.910Z,4.50
2022-09-12T21:37:14.433Z,7.77
2022-09-12T21:39:41.029Z,5.70
2022-09-12T21:42:07.474Z,6.40
2022-09-12T21:44:33.953Z,5.93
2022-09-12T21:47:00.488Z,12.10
2022-09-12T21:49:26.965Z,6.23
2022-09-12T21:51:53.433Z,8.93
2022-09-12T21:54:19.872Z,9.50
2022-09-12T21:56:46.405Z,4.30
2022-09-12T21:59:12.848Z,8.60
2022-09-12T22:01:39.345Z,5.27
2022-09-12T22:04:05.785Z,7.10
2022-09-12T22:06:32.292Z,4.80
2022-09-12T22:08:58.736Z,8.67
2022-09-12T22:11:25.221Z,10.40
2022-09-12T22:13:51.688Z,5.67
2022-09-12T22:16:18.624Z,5.43
2022-09-12T22:18:48.071Z,7.57
2022-09-12T22:21:15.872Z,6.80
2022-09-12T22:24:01.083Z,4.40
2022-09-12T22:26:27.614Z,7.00
2022-09-12T22:28:54.471Z,4.23
2022-09-12T22:31:21.032Z,6.00
2022-09-12T22:33:48.612Z,7.60
2022-09-12T22:36:15.431Z,4.07
2022-09-12T22:38:41.899Z,4.40
2022-09-12T22:41:09.789Z,5.83
2022-09-12T22:43:36.591Z,4.37
2022-09-12T22:46:09.647Z,9.50
2022-09-12T22:48:37.073Z,10.67
2022-09-12T22:51:03.892Z,5.90
2022-09-12T22:53:30.400Z,6.60
2022-09-12T22:55:57.126Z,7.47
2022-09-12T22:58:23.592Z,7.63
2022-09-12T23:00:50.721Z,7.80
2022-09-12T23:03:17.562Z,5.13
2022-09-12T23:05:45.537Z,5.07
2022-09-12T23:08:12.157Z,5.50
2022-09-12T23:10:38.768Z,4.57
2022-09-12T23:13:05.325Z,5.40
2022-09-12T23:15:32.031Z,6.87
2022-09-12T23:17:58.801Z,7.07
2022-09-12T23:20:25.425Z,14.10
2022-09-12T23:22:52.101Z,6.70
2022-09-12T23:25:18.531Z,6.60
2022-09-12T23:27:45.004Z,6.07
2022-09-12T23:30:12.131Z,4.60
2022-09-12T23:32:38.597Z,15.63
2022-09-12T23:35:05.358Z,5.07
2022-09-12T23:37:31.802Z,8.77
2022-09-12T23:39:58.289Z,5.73
2022-09-12T23:42:24.899Z,5.10
2022-09-12T23:44:51.333Z,5.30
2022-09-12T23:47:18.437Z,5.00
2022-09-12T23:49:45.823Z,10.80
2022-09-12T23:52:12.259Z,8.93
2022-09-12T23:54:38.720Z,7.07
2022-09-12T23:57:05.214Z,5.03
2022-09-12T23:59:31.754Z,8.83
